Time;durP1;ratioP1;P1;durP2;ratioP2;P2;SDS_P1;SDS_P2;PMS_P1;PMS_P2;Temp;Humidity;BMP_temperature;BMP_pressure;BME280_temperature;BME280_humidity;BME280_pressure;Samples;Min_cycle;Max_cycle;Signal;HPM_P1;HPM_P2
2020/12/26 00:00:26;;;;;;;4.00;2.53;;;;;;;-0.63;95.21;96635.69;1032490;28;20137;-74
2020/12/26 00:00:58;;;;;;;4.43;2.40;;;;;;;-0.62;95.71;96644.34;1036528;28;20078;-74
2020/12/26 00:01:29;;;;;;;4.50;2.30;;;;;;;-0.65;95.05;96636.69;1028277;29;20047;-74
2020/12/26 00:01:59;;;;;;;3.38;2.22;;;;;;;-0.97;94.87;96580.28;1028827;29;20019;-74
2020/12/26 00:02:30;;;;;;;4.13;2.35;;;;;;;-0.62;94.54;96632.13;1028956;29;20273;-74
2020/12/26 00:03:01;;;;;;;6.78;2.67;;;;;;;-0.61;94.55;96626.00;1032849;28;20031;-74
2020/12/26 00:03:32;;;;;;;5.68;2.70;;;;;;;-0.67;95.54;96634.16;1027983;28;20448;-74
2020/12/26 00:04:03;;;;;;;4.35;2.67;;;;;;;-0.80;95.73;96607.13;1027490;29;20062;-74
2020/12/26 00:04:36;;;;;;;3.92;2.35;;;;;;;-0.63;95.76;96625.25;1027743;29;20155;-74
2020/12/26 00:05:07;;;;;;;4.30;2.38;;;;;;;-0.69;96.01;96636.03;1026934;28;20024;-75
2020/12/26 00:05:39;;;;;;;5.15;2.50;;;;;;;-0.68;96.07;96635.13;1034314;28;20019;-74
2020/12/26 00:06:14;;;;;;;5.15;2.60;;;;;;;-0.66;95.97;96632.41;1030632;28;20018;-75
2020/12/26 00:06:50;;;;;;;7.45;2.45;;;;;;;-0.68;96.24;96631.66;1030429;28;20097;-74
2020/12/26 00:07:20;;;;;;;5.43;2.67;;;;;;;-0.71;96.51;96632.69;1030683;28;20022;-75
2020/12/26 00:07:53;;;;;;;4.97;2.47;;;;;;;-0.74;96.17;96630.25;1034665;28;20130;-74
2020/12/26 00:08:23;;;;;;;4.90;2.90;;;;;;;-0.78;96.60;96621.75;1034437;28;20019;-74
2020/12/26 00:08:54;;;;;;;6.78;3.40;;;;;;;-0.82;97.90;96629.84;1026414;29;20412;-74
2020/12/26 00:09:25;;;;;;;5.10;2.58;;;;;;;-0.81;97.69;96634.16;1026742;29;20112;-74
2020/12/26 00:09:56;;;;;;;4.45;2.40;;;;;;;-0.92;97.45;96613.91;1026948;29;20522;-74
2020/12/26 00:10:26;;;;;;;4.55;2.53;;;;;;;-0.85;97.87;96632.66;1027013;29;20090;-74
2020/12/26 00:10:57;;;;;;;3.67;2.50;;;;;;;-0.93;98.00;96625.25;1030876;28;20020;-74
2020/12/26 00:11:28;;;;;;;5.00;2.72;;;;;;;-0.91;98.13;96631.22;1034726;28;20133;-74
2020/12/26 00:11:59;;;;;;;4.68;2.60;;;;;;;-0.89;97.97;96629.34;1026669;29;20521;-74
2020/12/26 00:12:29;;;;;;;5.32;2.88;;;;;;;-0.90;97.90;96626.88;1034874;28;20018;-74
2020/12/26 00:13:00;;;;;;;4.70;2.38;;;;;;;-1.08;98.24;96603.53;1030666;28;20034;-74
2020/12/26 00:13:31;;;;;;;3.90;2.55;;;;;;;-0.91;98.10;96627.78;1030581;28;20015;-74
2020/12/26 00:14:01;;;;;;;5.63;3.03;;;;;;;-1.19;98.06;96579.84;1030430;28;20043;-74
2020/12/26 00:14:32;;;;;;;4.40;2.58;;;;;;;-0.89;98.56;96631.97;1030750;28;20011;-74
2020/12/26 00:15:03;;;;;;;5.30;2.80;;;;;;;-0.96;99.15;96639.31;1034706;28;20416;-75
2020/12/26 00:15:34;;;;;;;6.38;3.13;;;;;;;-1.23;99.80;96587.00;1030663;28;20105;-74
2020/12/26 00:16:06;;;;;;;5.25;3.13;;;;;;;-0.98;100.00;96632.50;1030691;28;20027;-74
2020/12/26 00:16:37;;;;;;;6.53;3.25;;;;;;;-0.98;99.88;96635.94;1034362;28;20011;-74
2020/12/26 00:17:08;;;;;;;5.30;2.67;;;;;;;-1.41;100.00;96575.88;1031150;28;20015;-74
2020/12/26 00:17:39;;;;;;;8.02;3.00;;;;;;;-1.00;100.00;96637.78;1026937;28;20389;-74
2020/12/26 00:18:10;;;;;;;5.30;2.85;;;;;;;-1.30;99.91;96577.84;1027242;29;20098;-74
2020/12/26 00:18:41;;;;;;;4.38;2.80;;;;;;;-0.95;99.84;96635.75;1035428;28;20018;-74
2020/12/26 00:19:15;;;;;;;4.68;2.75;;;;;;;-1.22;99.57;96595.63;1030998;28;20078;-74
2020/12/26 00:19:45;;;;;;;5.85;2.60;;;;;;;-0.93;99.67;96640.06;1031140;28;20070;-74
2020/12/26 00:20:19;;;;;;;4.57;2.70;;;;;;;-0.92;99.20;96636.50;1039045;28;20176;-74
2020/12/26 00:20:50;;;;;;;4.18;2.50;;;;;;;-1.15;99.46;96607.38;1035164;28;20010;-75
2020/12/26 00:21:21;;;;;;;5.95;2.97;;;;;;;-1.01;100.00;96637.88;1035162;28;20018;-74
2020/12/26 00:21:52;;;;;;;5.88;3.08;;;;;;;-1.47;100.00;96559.75;1035355;28;20105;-74
2020/12/26 00:22:23;;;;;;;5.72;2.63;;;;;;;-1.01;100.00;96645.69;1027297;29;20015;-74
2020/12/26 00:22:53;;;;;;;6.18;3.33;;;;;;;-1.59;100.00;96553.44;1031348;28;20109;-74
2020/12/26 00:23:24;;;;;;;6.80;3.28;;;;;;;-1.03;100.00;96652.78;1035608;28;20364;-75
2020/12/26 00:23:55;;;;;;;5.18;2.90;;;;;;;-1.00;100.00;96644.78;1027251;29;20087;-73
2020/12/26 00:24:26;;;;;;;7.00;2.70;;;;;;;-1.28;100.00;96594.22;1031367;28;20146;-74
2020/12/26 00:24:56;;;;;;;4.13;2.53;;;;;;;-1.28;99.99;96590.78;1031921;28;20043;-74
2020/12/26 00:25:27;;;;;;;5.70;3.10;;;;;;;-0.94;100.00;96641.84;1044145;28;20089;-74
2020/12/26 00:25:58;;;;;;;5.40;3.20;;;;;;;-1.30;99.86;96598.69;1028158;29;20038;-74
2020/12/26 00:26:28;;;;;;;4.53;2.75;;;;;;;-1.02;99.66;96650.09;1027980;29;20016;-74
2020/12/26 00:26:59;;;;;;;5.05;2.80;;;;;;;-1.82;99.75;96513.91;1024500;29;20461;-74
2020/12/26 00:27:30;;;;;;;6.05;3.22;;;;;;;-1.25;99.84;96607.09;1036620;28;20029;-74
2020/12/26 00:28:01;;;;;;;5.00;3.15;;;;;;;-1.20;99.91;96610.28;1032513;28;20052;-73
2020/12/26 00:28:32;;;;;;;5.90;2.90;;;;;;;-0.96;99.75;96652.34;1031788;28;20030;-74
2020/12/26 00:29:02;;;;;;;4.55;2.90;;;;;;;-1.12;99.50;96622.84;1031701;28;20014;-74
2020/12/26 00:29:33;;;;;;;6.03;2.53;;;;;;;-1.21;100.00;96607.75;1031294;28;20118;-74
2020/12/26 00:30:04;;;;;;;4.70;2.80;;;;;;;-0.99;100.00;96644.69;1034691;28;20025;-74
2020/12/26 00:30:35;;;;;;;4.10;2.50;;;;;;;-1.07;100.00;96646.91;1030832;28;20030;-74
2020/12/26 00:31:05;;;;;;;4.45;2.83;;;;;;;-1.06;100.00;96652.94;1026873;28;20021;-74
2020/12/26 00:31:36;;;;;;;7.13;3.00;;;;;;;-1.02;100.00;96651.84;1026648;29;20023;-74
2020/12/26 00:32:07;;;;;;;4.43;3.03;;;;;;;-1.37;100.00;96587.78;1030972;28;20029;-74
2020/12/26 00:32:38;;;;;;;6.10;2.90;;;;;;;-1.06;100.00;96653.78;1026553;29;20490;-74
2020/12/26 00:33:08;;;;;;;5.18;2.80;;;;;;;-1.07;100.00;96646.91;1030947;28;20105;-74
2020/12/26 00:33:39;;;;;;;5.50;2.90;;;;;;;-1.07;100.00;96652.09;1034867;28;20046;-74
2020/12/26 00:34:10;;;;;;;5.30;3.17;;;;;;;-1.10;100.00;96656.66;1030815;28;20027;-74
2020/12/26 00:34:40;;;;;;;5.97;2.83;;;;;;;-1.09;100.00;96651.34;1034945;28;20050;-74
2020/12/26 00:35:11;;;;;;;6.00;3.08;;;;;;;-1.45;100.00;96589.13;1038910;28;20018;-74
2020/12/26 00:35:42;;;;;;;4.65;3.00;;;;;;;-1.53;100.00;96579.16;1026964;29;20024;-74
2020/12/26 00:36:12;;;;;;;5.55;3.20;;;;;;;-1.20;100.00;96645.91;1026736;29;20369;-74
2020/12/26 00:36:43;;;;;;;4.70;3.25;;;;;;;-1.21;100.00;96642.47;1030841;28;20070;-73
2020/12/26 00:37:16;;;;;;;5.82;3.53;;;;;;;-1.79;100.00;96568.41;1030903;28;20055;-74
2020/12/26 00:37:48;;;;;;;5.28;3.28;;;;;;;-1.23;100.00;96652.13;1031213;28;20014;-74
2020/12/26 00:38:19;;;;;;;4.95;2.85;;;;;;;-1.21;100.00;96652.06;1035135;28;20018;-75
2020/12/26 00:38:50;;;;;;;5.88;3.20;;;;;;;-1.41;100.00;96620.16;1030511;28;20023;-74
2020/12/26 00:39:20;;;;;;;7.88;3.22;;;;;;;-1.17;100.00;96659.63;1023304;29;20059;-74
2020/12/26 00:39:51;;;;;;;5.25;3.35;;;;;;;-1.65;100.00;96577.25;1031038;28;20043;-74
2020/12/26 00:40:22;;;;;;;10.38;3.42;;;;;;;-1.25;100.00;96654.00;1026802;29;20043;-74
2020/12/26 00:40:53;;;;;;;5.22;3.20;;;;;;;-1.23;100.00;96656.50;1031233;28;20022;-74
2020/12/26 00:41:24;;;;;;;5.30;2.90;;;;;;;-1.20;100.00;96651.09;1031335;28;20034;-74
2020/12/26 00:41:54;;;;;;;5.95;3.30;;;;;;;-1.18;100.00;96657.94;1031550;28;20023;-74
2020/12/26 00:42:25;;;;;;;7.43;3.53;;;;;;;-1.17;100.00;96656.16;1030909;28;20090;-74
2020/12/26 00:42:56;;;;;;;6.53;3.25;;;;;;;-1.20;100.00;96653.72;1030944;28;20027;-74
2020/12/26 00:43:27;;;;;;;7.85;3.55;;;;;;;-1.17;100.00;96657.00;1027156;29;20438;-74
2020/12/26 00:43:57;;;;;;;5.88;3.28;;;;;;;-1.34;100.00;96618.88;1035306;28;20045;-74
2020/12/26 00:44:28;;;;;;;5.03;3.10;;;;;;;-1.17;100.00;96650.94;1027271;29;20106;-75
2020/12/26 00:44:59;;;;;;;5.97;3.10;;;;;;;-1.18;100.00;96657.94;1031247;28;20015;-74
2020/12/26 00:45:30;;;;;;;7.53;3.60;;;;;;;-1.15;100.00;96656.91;1035195;28;20086;-74
2020/12/26 00:46:00;;;;;;;6.40;3.17;;;;;;;-1.45;100.00;96613.41;1036034;28;20093;-74
2020/12/26 00:46:31;;;;;;;6.43;3.40;;;;;;;-1.27;100.00;96641.97;1031723;28;20495;-74
2020/12/26 00:47:02;;;;;;;7.85;3.42;;;;;;;-1.19;100.00;96653.63;1031771;28;20021;-74
2020/12/26 00:47:33;;;;;;;8.15;3.42;;;;;;;-1.52;100.00;96593.84;1027349;29;20031;-74
2020/12/26 00:48:03;;;;;;;4.82;3.30;;;;;;;-1.52;100.00;96599.06;1027763;28;20015;-74
2020/12/26 00:48:34;;;;;;;7.35;3.80;;;;;;;-1.38;100.00;96619.94;1031591;28;20018;-74
2020/12/26 00:49:05;;;;;;;5.10;3.03;;;;;;;-1.59;100.00;96605.53;1027405;29;20029;-74
2020/12/26 00:49:36;;;;;;;7.70;3.28;;;;;;;-1.19;100.00;96660.63;1023518;29;20030;-74
2020/12/26 00:50:06;;;;;;;6.70;3.50;;;;;;;-1.21;100.00;96663.31;1027523;29;20037;-74
2020/12/26 00:50:37;;;;;;;5.93;3.78;;;;;;;-1.67;100.00;96590.34;1031630;28;20061;-74
2020/12/26 00:51:10;;;;;;;8.00;3.90;;;;;;;-1.52;100.00;96622.50;1027437;29;20055;-74
2020/12/26 00:51:41;;;;;;;5.93;3.67;;;;;;;-1.22;100.00;96661.66;1027462;29;20077;-74
2020/12/26 00:52:12;;;;;;;6.47;3.50;;;;;;;-1.44;100.00;96632.50;1031579;28;20095;-74
2020/12/26 00:52:46;;;;;;;5.70;3.65;;;;;;;-1.43;100.00;96642.84;1035317;28;20018;-75
2020/12/26 00:53:17;;;;;;;9.75;3.70;;;;;;;-1.25;100.00;96668.78;1039584;28;20155;-74
2020/12/26 00:53:48;;;;;;;5.97;3.55;;;;;;;-1.32;100.00;96650.06;1027558;28;20031;-74
2020/12/26 00:54:19;;;;;;;5.22;3.15;;;;;;;-1.27;100.00;96666.28;1031655;28;20050;-75
2020/12/26 00:54:50;;;;;;;6.75;3.92;;;;;;;-1.30;100.00;96655.19;1031438;28;20015;-74
2020/12/26 00:55:20;;;;;;;7.05;3.58;;;;;;;-1.25;100.00;96663.59;1023532;29;20091;-74
2020/12/26 00:55:51;;;;;;;7.75;4.10;;;;;;;-1.27;100.00;96660.19;1027441;29;20054;-74
2020/12/26 00:56:22;;;;;;;6.43;4.15;;;;;;;-1.36;100.00;96662.41;1031294;28;20019;-74
2020/12/26 00:56:53;;;;;;;8.20;4.22;;;;;;;-1.34;100.00;96667.53;1031618;28;20019;-74
2020/12/26 00:57:24;;;;;;;6.97;4.05;;;;;;;-1.33;100.00;96664.81;1031117;28;20027;-73
2020/12/26 00:57:55;;;;;;;7.82;4.80;;;;;;;-1.31;100.00;96663.91;1031014;28;20022;-74
2020/12/26 00:58:26;;;;;;;8.88;4.50;;;;;;;-1.40;100.00;96657.44;1026898;29;20039;-74
2020/12/26 00:58:57;;;;;;;6.13;3.72;;;;;;;-1.35;100.00;96661.47;1026203;29;20094;-74
2020/12/26 00:59:27;;;;;;;8.48;5.10;;;;;;;-1.66;100.00;96607.63;1022013;29;20492;-74
2020/12/26 01:00:00;;;;;;;8.32;4.75;;;;;;;-1.33;100.00;96658.78;1033829;28;20023;-74
2020/12/26 01:00:30;;;;;;;9.30;4.00;;;;;;;-1.60;100.00;96629.88;1025963;29;20178;-74
2020/12/26 01:01:01;;;;;;;9.43;4.82;;;;;;;-1.64;100.00;96625.78;1030321;28;20049;-74
2020/12/26 01:01:32;;;;;;;8.50;4.65;;;;;;;-1.47;100.00;96656.09;1034100;28;20018;-74
2020/12/26 01:02:03;;;;;;;8.90;4.57;;;;;;;-1.52;100.00;96661.56;1029879;28;20034;-73
2020/12/26 01:02:34;;;;;;;8.80;4.50;;;;;;;-1.50;100.00;96656.25;1029813;28;20019;-74
2020/12/26 01:03:05;;;;;;;7.82;4.65;;;;;;;-1.47;100.00;96661.31;1034111;28;20026;-74
2020/12/26 01:03:36;;;;;;;8.63;5.22;;;;;;;-1.47;100.00;96659.53;1025857;29;20015;-74
2020/12/26 01:04:07;;;;;;;10.27;5.50;;;;;;;-1.48;100.00;96664.81;1026294;29;20024;-74
2020/12/26 01:04:37;;;;;;;7.75;4.72;;;;;;;-1.76;100.00;96622.94;1026036;29;20028;-74
2020/12/26 01:05:08;;;;;;;10.05;4.80;;;;;;;-1.84;100.00;96603.44;1026031;29;20083;-73
2020/12/26 01:05:39;;;;;;;7.70;4.57;;;;;;;-1.51;100.00;96663.25;1026145;29;20015;-74
2020/12/26 01:06:12;;;;;;;9.68;4.97;;;;;;;-1.72;100.00;96631.41;1030079;28;20066;-74
2020/12/26 01:06:43;;;;;;;9.45;5.55;;;;;;;-1.52;100.00;96662.38;1030000;28;20132;-74
2020/12/26 01:07:14;;;;;;;8.88;5.25;;;;;;;-1.82;100.00;96615.44;1022130;29;20133;-74
2020/12/26 01:07:44;;;;;;;8.27;5.05;;;;;;;-1.57;100.00;96653.16;1026059;29;20503;-74
2020/12/26 01:08:15;;;;;;;9.65;4.82;;;;;;;-1.48;100.00;96663.09;1026050;29;20019;-74
2020/12/26 01:08:46;;;;;;;9.80;4.85;;;;;;;-1.48;100.00;96662.22;1025890;29;20388;-74
2020/12/26 01:09:17;;;;;;;9.70;5.50;;;;;;;-1.48;100.00;96667.44;1030251;28;20193;-74
2020/12/26 01:09:48;;;;;;;7.75;4.80;;;;;;;-1.77;100.00;96617.81;1022236;29;20015;-74
2020/12/26 01:10:19;;;;;;;8.60;4.95;;;;;;;-1.50;100.00;96659.69;1029965;28;20034;-74
2020/12/26 01:10:50;;;;;;;10.27;4.85;;;;;;;-1.57;100.00;96660.97;1026256;29;20042;-74
2020/12/26 01:11:21;;;;;;;8.07;4.95;;;;;;;-1.60;100.00;96664.59;1030056;28;20054;-74
2020/12/26 01:11:51;;;;;;;9.93;5.38;;;;;;;-1.58;100.00;96651.50;1026030;29;20011;-74
2020/12/26 01:12:22;;;;;;;9.30;5.18;;;;;;;-1.54;100.00;96653.00;1029753;28;20495;-74
2020/12/26 01:12:53;;;;;;;9.98;5.00;;;;;;;-1.54;100.00;96656.44;1030059;28;20093;-74
2020/12/26 01:13:24;;;;;;;10.85;4.82;;;;;;;-1.55;100.00;96657.38;1030260;28;20027;-74
2020/12/26 01:13:54;;;;;;;7.68;4.97;;;;;;;-1.54;100.00;96658.19;1030062;28;20022;-74
2020/12/26 01:14:25;;;;;;;9.45;5.22;;;;;;;-1.59;100.00;96652.41;1026112;28;20538;-74
2020/12/26 01:14:57;;;;;;;8.40;4.97;;;;;;;-1.60;100.00;96655.91;1026165;28;20047;-74
2020/12/26 01:15:28;;;;;;;10.13;5.18;;;;;;;-1.94;100.00;96603.09;1030574;28;20019;-74
2020/12/26 01:15:59;;;;;;;9.57;5.68;;;;;;;-1.60;100.00;96655.91;1026192;29;20019;-74
2020/12/26 01:16:29;;;;;;;9.68;5.22;;;;;;;-1.81;100.00;96617.13;1021937;29;20039;-74
2020/12/26 01:17:01;;;;;;;10.75;6.43;;;;;;;-1.65;100.00;96652.75;1029767;28;20019;-74
2020/12/26 01:17:34;;;;;;;11.00;5.28;;;;;;;-1.69;100.00;96652.03;1029805;28;20022;-75
2020/12/26 01:18:05;;;;;;;9.90;5.82;;;;;;;-1.73;100.00;96653.16;1034376;28;20017;-74
2020/12/26 01:18:36;;;;;;;7.72;5.07;;;;;;;-1.99;100.00;96616.34;1026052;28;20019;-74
2020/12/26 01:19:07;;;;;;;8.93;5.40;;;;;;;-1.76;100.00;96646.34;1026122;29;20019;-74
2020/12/26 01:19:38;;;;;;;10.75;5.35;;;;;;;-1.68;100.00;96652.91;1026181;29;20743;-74
2020/12/26 01:20:09;;;;;;;9.57;5.85;;;;;;;-2.11;100.00;96594.44;1026127;29;20115;-74
2020/12/26 01:20:40;;;;;;;8.20;4.93;;;;;;;-1.73;100.00;96651.38;1025776;29;20103;-74
2020/12/26 01:21:14;;;;;;;9.45;5.32;;;;;;;-1.69;100.00;96652.03;1030345;28;20383;-74
2020/12/26 01:21:52;;;;;;;11.68;6.07;;;;;;;-1.71;100.00;96659.09;1030285;28;20019;-74
2020/12/26 01:22:22;;;;;;;7.35;4.90;;;;;;;-1.85;100.00;96640.78;1030057;28;20054;-74
2020/12/26 01:22:54;;;;;;;8.25;5.28;;;;;;;-1.80;100.00;96646.59;1030022;28;20353;-73
2020/12/26 01:23:25;;;;;;;9.35;5.38;;;;;;;-1.77;100.00;96657.69;1038076;28;20036;-74
2020/12/26 01:23:56;;;;;;;7.03;4.60;;;;;;;-1.78;100.00;96661.19;1034103;28;20077;-74
2020/12/26 01:24:26;;;;;;;9.40;5.43;;;;;;;-2.16;100.00;96588.66;1030159;28;20034;-74
2020/12/26 01:24:57;;;;;;;9.77;5.25;;;;;;;-1.75;100.00;96660.22;1030074;28;20030;-74
2020/12/26 01:25:28;;;;;;;8.77;5.68;;;;;;;-1.78;100.00;96656.00;1026334;29;20499;-74
2020/12/26 01:25:59;;;;;;;9.63;5.18;;;;;;;-1.84;100.00;96651.13;1025850;29;20024;-74
2020/12/26 01:26:30;;;;;;;10.18;5.53;;;;;;;-1.78;100.00;96658.59;1025815;29;20015;-74
2020/12/26 01:27:00;;;;;;;10.48;5.40;;;;;;;-1.80;100.00;96657.84;1025971;29;20019;-74
2020/12/26 01:27:32;;;;;;;10.32;5.18;;;;;;;-1.79;100.00;96654.31;1030126;28;20030;-74
2020/12/26 01:28:03;;;;;;;8.50;5.47;;;;;;;-2.11;100.00;96615.25;1026086;29;20023;-74
2020/12/26 01:28:34;;;;;;;13.05;5.90;;;;;;;-1.82;100.00;96657.09;1026114;29;20023;-74
2020/12/26 01:29:04;;;;;;;11.20;5.25;;;;;;;-1.82;100.00;96658.84;1029960;28;20050;-73
2020/12/26 01:29:35;;;;;;;11.60;5.90;;;;;;;-1.84;100.00;96656.34;1022381;29;20016;-74
2020/12/26 01:30:06;;;;;;;10.23;5.43;;;;;;;-1.89;100.00;96650.53;1034216;28;20049;-75
2020/12/26 01:30:37;;;;;;;8.68;5.70;;;;;;;-1.84;100.00;96661.53;1030027;28;20103;-73
2020/12/26 01:31:08;;;;;;;9.30;5.15;;;;;;;-1.85;100.00;96657.25;1030012;28;20023;-74
2020/12/26 01:31:39;;;;;;;11.20;4.93;;;;;;;-2.05;100.00;96631.47;1034018;28;20030;-75
2020/12/26 01:32:11;;;;;;;8.05;4.95;;;;;;;-1.86;100.00;96660.78;1029513;28;20388;-74
2020/12/26 01:32:41;;;;;;;8.23;5.07;;;;;;;-2.05;100.00;96634.06;1033487;28;20089;-73
2020/12/26 01:33:12;;;;;;;9.32;5.93;;;;;;;-1.97;100.00;96650.09;1029303;28;20262;-74
2020/12/26 01:33:43;;;;;;;8.38;5.10;;;;;;;-1.92;100.00;96668.91;1025585;29;20033;-74
2020/12/26 01:34:14;;;;;;;10.52;5.70;;;;;;;-1.94;100.00;96666.38;1025566;29;20015;-75
2020/12/26 01:34:45;;;;;;;8.93;5.13;;;;;;;-1.92;100.00;96671.50;1025701;29;20043;-74
2020/12/26 01:35:16;;;;;;;9.52;5.68;;;;;;;-1.92;100.00;96667.13;1021791;29;20111;-74
2020/12/26 01:35:47;;;;;;;9.82;6.13;;;;;;;-1.93;100.00;96664.66;1021867;29;20078;-75
2020/12/26 01:36:17;;;;;;;9.50;5.72;;;;;;;-1.94;100.00;96660.34;1025686;29;20029;-74
2020/12/26 01:36:50;;;;;;;11.52;5.35;;;;;;;-1.92;100.00;96663.69;1029452;28;20380;-74
2020/12/26 01:37:21;;;;;;;10.88;5.85;;;;;;;-1.94;100.00;96665.56;1029564;28;20396;-74
2020/12/26 01:37:51;;;;;;;10.85;6.28;;;;;;;-2.12;100.00;96655.19;1029773;28;20050;-74
2020/12/26 01:38:23;;;;;;;8.75;5.15;;;;;;;-1.94;100.00;96662.94;1025707;29;20050;-74
2020/12/26 01:38:53;;;;;;;10.40;6.05;;;;;;;-1.93;100.00;96670.69;1025846;29;20047;-74
2020/12/26 01:39:24;;;;;;;9.38;5.50;;;;;;;-1.95;100.00;96671.66;1029391;28;20258;-74
2020/12/26 01:39:55;;;;;;;8.15;5.47;;;;;;;-1.99;100.00;96667.56;1025690;29;20015;-74
2020/12/26 01:40:26;;;;;;;9.77;5.90;;;;;;;-2.00;100.00;96665.84;1025771;29;20079;-74
2020/12/26 01:40:57;;;;;;;9.13;5.60;;;;;;;-2.50;100.00;96585.19;1021614;29;20289;-74
2020/12/26 01:41:28;;;;;;;10.40;6.38;;;;;;;-2.01;100.00;96661.59;1021322;29;20553;-73
2020/12/26 01:41:59;;;;;;;9.38;5.30;;;;;;;-2.00;100.00;96668.47;1029579;28;20026;-74
2020/12/26 01:42:30;;;;;;;10.82;6.03;;;;;;;-2.03;100.00;96656.47;1029658;28;20294;-74
2020/12/26 01:43:02;;;;;;;8.85;5.22;;;;;;;-2.12;100.00;96651.75;1029590;28;20169;-74
2020/12/26 01:43:33;;;;;;;9.05;5.95;;;;;;;-2.05;100.00;96662.69;1037376;28;20029;-74
2020/12/26 01:44:04;;;;;;;10.25;5.55;;;;;;;-2.07;100.00;96665.38;1029517;28;20341;-74
2020/12/26 01:44:35;;;;;;;10.18;6.40;;;;;;;-2.38;100.00;96616.69;1029511;28;20038;-74
2020/12/26 01:45:06;;;;;;;9.45;5.38;;;;;;;-2.41;100.00;96607.28;1025626;29;20034;-74
2020/12/26 01:45:36;;;;;;;8.70;6.15;;;;;;;-2.21;100.00;96641.81;1029228;28;20721;-73
2020/12/26 01:46:09;;;;;;;10.43;6.00;;;;;;;-2.11;100.00;96661.22;1029608;28;20023;-74
2020/12/26 01:46:39;;;;;;;10.80;6.18;;;;;;;-2.09;100.00;96669.78;1025791;29;20512;-74
2020/12/26 01:47:11;;;;;;;7.90;5.05;;;;;;;-2.38;100.00;96624.50;1029344;28;20270;-74
2020/12/26 01:47:42;;;;;;;9.85;5.55;;;;;;;-2.27;100.00;96650.78;1021407;29;20031;-73
2020/12/26 01:48:13;;;;;;;9.73;5.63;;;;;;;-2.14;100.00;96664.00;1025687;29;20258;-74
2020/12/26 01:48:44;;;;;;;10.82;6.32;;;;;;;-2.14;100.00;96662.25;1025489;29;20034;-74
2020/12/26 01:49:16;;;;;;;10.10;6.35;;;;;;;-2.11;100.00;96672.50;1023187;29;20323;-74
2020/12/26 01:49:47;;;;;;;10.88;5.75;;;;;;;-2.10;100.00;96668.94;1028159;29;20027;-73
2020/12/26 01:50:17;;;;;;;8.50;5.35;;;;;;;-2.09;100.00;96664.59;1027923;28;20259;-74
2020/12/26 01:50:51;;;;;;;9.70;5.57;;;;;;;-2.10;100.00;96662.91;1027580;29;20046;-74
2020/12/26 01:51:22;;;;;;;10.60;6.50;;;;;;;-2.13;100.00;96663.91;1032114;28;20053;-74
2020/12/26 01:51:52;;;;;;;10.57;6.38;;;;;;;-2.14;100.00;96667.44;1032082;28;20262;-73
2020/12/26 01:52:24;;;;;;;13.27;6.38;;;;;;;-2.15;100.00;96668.34;1031985;28;20088;-73
2020/12/26 01:52:54;;;;;;;11.20;6.10;;;;;;;-2.14;100.00;96664.00;1031997;28;20022;-74
2020/12/26 01:53:26;;;;;;;12.10;6.25;;;;;;;-2.17;100.00;96672.81;1036344;28;20762;-74
2020/12/26 01:53:57;;;;;;;10.63;5.82;;;;;;;-2.15;100.00;96670.94;1035898;28;20086;-73
2020/12/26 01:54:29;;;;;;;10.00;5.78;;;;;;;-2.43;100.00;96626.50;1036252;28;20253;-74
2020/12/26 01:54:59;;;;;;;13.40;6.18;;;;;;;-2.16;100.00;96669.28;1028373;29;20270;-74
2020/12/26 01:55:30;;;;;;;11.95;6.15;;;;;;;-2.17;100.00;96670.19;1036158;28;20292;-74
2020/12/26 01:56:01;;;;;;;9.95;5.53;;;;;;;-2.18;100.00;96671.09;1028017;29;20117;-73
2020/12/26 01:56:32;;;;;;;12.68;6.82;;;;;;;-2.24;100.00;96662.81;1024221;29;20304;-73
2020/12/26 01:57:06;;;;;;;10.98;6.28;;;;;;;-2.23;100.00;96662.72;1028388;29;20142;-75
2020/12/26 01:57:37;;;;;;;10.55;5.78;;;;;;;-2.69;100.00;96593.09;1027951;29;20034;-74
2020/12/26 01:58:15;;;;;;;9.85;5.50;;;;;;;-2.23;100.00;96665.34;1028029;29;20306;-74
2020/12/26 01:58:46;;;;;;;11.32;6.03;;;;;;;-2.24;100.00;96661.03;1028170;29;20097;-74
2020/12/26 01:59:16;;;;;;;9.70;6.45;;;;;;;-2.23;100.00;96667.06;1024280;29;20359;-74
2020/12/26 01:59:48;;;;;;;11.20;6.20;;;;;;;-2.25;100.00;96666.31;1032071;28;20046;-74
2020/12/26 02:00:19;;;;;;;10.80;5.72;;;;;;;-2.27;100.00;96661.19;1027906;28;20025;-73
2020/12/26 02:00:50;;;;;;;9.75;6.18;;;;;;;-2.48;100.00;96627.56;1031856;28;20770;-74
2020/12/26 02:01:38;;;;;;;9.57;5.57;;;;;;;-2.48;100.00;96645.75;1027229;29;20318;-73
2020/12/26 02:02:09;;;;;;;10.68;5.75;;;;;;;-2.66;100.00;96605.13;1029549;28;20022;-74
2020/12/26 02:02:41;;;;;;;9.15;5.75;;;;;;;-2.32;100.00;96664.00;1024894;29;20326;-74
2020/12/26 02:03:11;;;;;;;11.10;5.78;;;;;;;-2.47;100.00;96647.47;1025798;29;20330;-74
2020/12/26 02:03:42;;;;;;;10.30;5.82;;;;;;;-2.64;100.00;96607.66;1027067;29;20715;-73
2020/12/26 02:04:13;;;;;;;10.43;6.10;;;;;;;-2.44;100.00;96646.44;1023328;29;20036;-74
2020/12/26 02:04:44;;;;;;;10.00;5.75;;;;;;;-2.34;100.00;96657.22;1023376;29;20027;-74
2020/12/26 02:05:15;;;;;;;11.52;6.07;;;;;;;-2.36;100.00;96664.28;1019184;29;20032;-74
2020/12/26 02:05:46;;;;;;;10.55;6.28;;;;;;;-2.82;100.00;96589.47;1027041;29;20026;-74
2020/12/26 02:06:16;;;;;;;9.98;5.82;;;;;;;-2.38;100.00;96666.13;1039164;28;20344;-73
2020/12/26 02:06:49;;;;;;;10.80;5.60;;;;;;;-2.39;100.00;96660.06;1023787;29;20019;-74
2020/12/26 02:07:19;;;;;;;9.85;5.50;;;;;;;-2.37;100.00;96660.84;1030776;28;20046;-74
2020/12/26 02:07:50;;;;;;;12.15;6.80;;;;;;;-2.36;100.00;96661.66;1026700;29;20282;-74
2020/12/26 02:08:21;;;;;;;10.65;5.85;;;;;;;-2.35;100.00;96660.72;1030622;28;20051;-74
2020/12/26 02:08:52;;;;;;;9.38;5.70;;;;;;;-2.53;100.00;96637.34;1030254;28;20058;-74
2020/12/26 02:09:24;;;;;;;11.65;6.30;;;;;;;-2.34;100.00;96667.63;1030456;28;20451;-74
2020/12/26 02:09:55;;;;;;;11.93;6.10;;;;;;;-2.35;100.00;96661.59;1034522;28;20026;-74
2020/12/26 02:10:25;;;;;;;13.45;6.65;;;;;;;-2.35;100.00;96665.94;1018234;29;20287;-74
2020/12/26 02:10:56;;;;;;;10.20;5.65;;;;;;;-2.35;100.00;96671.13;1026436;29;20034;-74
2020/12/26 02:11:27;;;;;;;11.70;6.10;;;;;;;-3.08;100.00;96541.44;1030264;28;20073;-74
2020/12/26 02:11:58;;;;;;;12.73;5.93;;;;;;;-2.36;100.00;96661.66;1026127;29;20022;-74
2020/12/26 02:12:30;;;;;;;10.25;6.22;;;;;;;-2.39;100.00;96665.25;1030233;28;20262;-74
2020/12/26 02:13:01;;;;;;;12.40;6.43;;;;;;;-2.38;100.00;96660.91;1029849;28;20019;-73
2020/12/26 02:13:33;;;;;;;11.15;6.47;;;;;;;-2.41;100.00;96661.91;1021905;29;20755;-74
2020/12/26 02:14:03;;;;;;;10.23;6.25;;;;;;;-2.44;100.00;96669.84;1033962;28;20026;-75
2020/12/26 02:14:34;;;;;;;10.60;6.13;;;;;;;-2.43;100.00;96665.50;1022457;29;20271;-74
2020/12/26 02:15:05;;;;;;;9.73;5.55;;;;;;;-2.92;100.00;96585.66;1026057;29;20027;-74
2020/12/26 02:15:36;;;;;;;12.55;6.80;;;;;;;-2.46;100.00;96666.50;1022282;29;20106;-74
2020/12/26 02:16:08;;;;;;;9.55;5.82;;;;;;;-2.48;100.00;96665.72;1026087;29;20031;-74
2020/12/26 02:16:45;;;;;;;10.80;6.10;;;;;;;-2.47;100.00;96670.84;1026122;29;20059;-73
2020/12/26 02:17:24;;;;;;;10.63;6.05;;;;;;;-2.47;100.00;96673.47;1018291;29;20343;-74
2020/12/26 02:17:55;;;;;;;10.52;6.13;;;;;;;-2.50;100.00;96675.38;1022481;29;20272;-74
2020/12/26 02:18:26;;;;;;;10.52;5.95;;;;;;;-2.50;100.00;96677.97;1026234;29;20766;-74
2020/12/26 02:18:56;;;;;;;12.82;6.47;;;;;;;-2.50;100.00;96678.81;1029998;28;20725;-73
2020/12/26 02:19:27;;;;;;;12.25;6.50;;;;;;;-2.84;100.00;96630.25;1026266;29;20058;-74
2020/12/26 02:19:58;;;;;;;14.55;6.40;;;;;;;-3.00;100.00;96608.56;1030271;28;20054;-74
2020/12/26 02:20:29;;;;;;;12.52;6.38;;;;;;;-2.54;100.00;96682.50;1026257;29;20027;-74
2020/12/26 02:21:01;;;;;;;10.90;6.22;;;;;;;-2.54;100.00;96679.06;1029816;28;20031;-73
2020/12/26 02:21:31;;;;;;;9.63;5.78;;;;;;;-2.56;100.00;96686.06;1022464;29;20114;-74
2020/12/26 02:22:02;;;;;;;11.50;6.85;;;;;;;-2.55;100.00;96683.41;1030255;28;20262;-74
2020/12/26 02:22:33;;;;;;;11.40;6.35;;;;;;;-2.67;100.00;96665.81;1026309;29;20051;-74
2020/12/26 02:23:04;;;;;;;13.45;7.00;;;;;;;-2.58;100.00;96678.34;1022093;29;20043;-74
2020/12/26 02:23:40;;;;;;;11.80;7.15;;;;;;;-2.58;100.00;96691.34;1030172;28;20266;-74
2020/12/26 02:24:12;;;;;;;10.90;6.32;;;;;;;-2.95;100.00;96627.38;1022659;29;20028;-74
2020/12/26 02:24:43;;;;;;;11.32;6.40;;;;;;;-2.56;100.00;96679.13;1026428;29;20278;-74
2020/12/26 02:25:14;;;;;;;10.18;5.53;;;;;;;-2.56;100.00;96680.88;1030407;28;20641;-73